• Join FlightAware (Why Join?)
  • Login
  • US Flag 
06:38PM EST


 

Airport Tracker/Info


-or-


 

Live Flight TrackerFlight Track Log ✈ GJS3649 ✈ 26-Oct-2013 ✈ KDAY - KORD

Flight Track Log - Related Links

Times and Time Zones

All times are in EDT time to prevent confusion due to time zone crossing. See the GJS3649 flight status page for this flight to view local times or setup timezone preferences in your user account.

Time Position Orientation Groundspeed Altitude Reporting Facility
EDT Latitude Longitude Course Direction KTS MPH feet Rate Location/Type
04:36PM 39.8972 -84.2472 330° Northwest 128 147 1,800  Level Indianapolis Center
04:37PM 39.8953 -84.2875 266° West 151 174 3,600 2,460 Climbing Indianapolis Center
04:38PM 39.9361 -84.3308 321° Northwest 243 280 6,500 2,400 Climbing Indianapolis Center
04:39PM 40.0733 -84.5068 326° Northwest  Level Estimated
04:39PM 39.9875 -84.3772 325° Northwest 227 261 8,500  Level Indianapolis Center
04:40PM 40.1395 -84.5352 342° North  Level FlightAware Approximate
04:40PM 40.0478 -84.4242 329° Northwest 242 278 11,100  Level Indianapolis Center
04:41PM 40.1815 -84.6081 330° Northwest  Level Estimated
04:41PM 40.1189 -84.4828 328° Northwest 250 288 14,700  Level Indianapolis Center
04:42PM 40.1819 -84.5328 329° Northwest 259 298 17,000 2,520 Climbing Indianapolis Center
04:43PM 40.2472 -84.5850 329° Northwest 272 313 19,900 2,340 Climbing Indianapolis Center
04:44PM 40.3122 -84.6386 328° Northwest 275 316 21,900 1,020 Climbing Indianapolis Center
04:45PM 40.3803 -84.6928 329° Northwest 282 325 22,000  Climbing Indianapolis Center
04:46PM 40.4531 -84.7536 328° Northwest 303 349 22,000  Level Indianapolis Center
04:47PM 40.5289 -84.8144 329° Northwest 316 364 22,000  Level Indianapolis Center
04:48PM 40.6031 -84.8747 328° Northwest 315 362 22,000  Level Indianapolis Center
04:49PM 40.6850 -84.9422 328° Northwest 308 354 22,000  Level Indianapolis Center
04:50PM 40.7553 -85.0039 326° Northwest 306 352 22,000  Level Indianapolis Center
04:51PM 40.8031 -85.0936 305° West 301 346 22,000  Level Indianapolis Center
04:52PM 40.8508 -85.1833 305° West 300 345 22,000  Level Indianapolis Center
04:53PM 40.8972 -85.2736 304° West 300 345 22,000  Level Indianapolis Center
04:54PM 40.9422 -85.3603 305° West 292 336 22,000  Level Indianapolis Center
04:55PM 40.9958 -85.4650 304° West 289 333 22,000  Level Indianapolis Center
04:56PM 41.0392 -85.5514 304° West 284 327 22,000  Level Indianapolis Center
04:57PM 41.0842 -85.6389 304° West 288 331 22,000  Level Indianapolis Center
04:58PM 41.1303 -85.7297 304° West 295 339 22,000  Level Indianapolis Center
04:59PM 41.1753 -85.8178 304° West 292 336 22,000  Level Indianapolis Center
05:00PM 41.2186 -85.9058 303° West 288 331 22,000  Level Indianapolis Center
05:01PM 41.2639 -85.9933 305° West 288 331 22,000  Level Indianapolis Center
05:02PM 41.2928 -86.1106 288° West 287 330 22,000 -480 Level Indianapolis Center
05:03PM 41.3042 -86.2131 278° West 284 327 21,100 -1,080 Descending Indianapolis Center
05:05PM 41.3164 -86.3258 278° West 245 282 19,500 -1,260 Descending Chicago Center
05:06PM 41.3267 -86.4144 279° West 243 280 18,100 -1,500 Descending Chicago Center
05:07PM 41.3403 -86.5225 280° West 246 283 16,500 -1,380 Descending Chicago Center
05:08PM 41.3808 -86.5919 308° West 251 289 15,300 -1,080 Descending Chicago Center
05:09PM 41.4519 -86.6444 331° Northwest 289 333 14,300 -1,020 Descending Chicago Center
05:10PM 41.5258 -86.6992 331° Northwest 302 348 13,300 -1,020 Descending Chicago Center
05:11PM 41.6067 -86.7578 332° Northwest 316 364 12,300 -720 Descending Chicago Center
05:12PM 41.6897 -86.7975 340° North 323 372 11,900 -600 Descending Chicago Center
05:13PM 41.7775 -86.8103 354° North 322 371 11,100 -480 Descending Chicago Center
05:14PM 41.8794 -86.8475 345° North 323 372 11,000 -60 Descending Chicago Center
05:15PM 41.9261 -86.9356 305° West 305 351 11,000  Level Chicago Center
05:16PM 41.9592 -87.0353 294° West 300 345 11,000 -600 Level Chicago Center
05:17PM 41.9800 -87.1239 288° West 275 316 9,800 -1,320 Descending Chicago Center
05:18PM 41.9831 -87.2178 273° West 255 293 8,400 -1,380 Descending Chicago Center
05:19PM 41.9839 -87.3147 271° West 260 299 7,000 -720 Descending Chicago Center
05:20PM 41.9831 -87.4172 269° West 234 269 7,000 -60 Level Chicago Center
05:21PM 41.9828 -87.4922 270° West 205 236 6,900 -960 Descending Chicago Center
05:23PM 41.9833 -87.6500 270° West 209 241 4,200 -1,320 Descending Chicago TRACON
05:24PM 41.9833 -87.7333 270° West 202 232 3,100 -1,080 Descending Chicago TRACON
05:25PM 41.9833 -87.7833 270° West 169 194 2,100 -900 Descending Chicago TRACON
05:26PM 41.9833 -87.8333 270° West 121 139 1,400 -720 Descending Chicago TRACON